Terminal Aerodrome Forecast
Issued by NWS

Home | Current Version | Previous Version | Text Only | Print | Product List | Glossary On
Versions: 1 2 3 4 5 6 7 8 9 10 11 12 13 14 15 16 17 18 19 20 21 22 23 24 25 26 27
000
FTUS43 KPAH 181123
TAFOWB
TAF
KOWB 181123Z 1812/1912 19013G23KT P6SM OVC028
     FM181600 19017G27KT P6SM VCSH BKN018
     FM182000 22018G30KT 5SM -SHRA VCTS BKN015CB
     FM182200 31021G35KT P6SM BKN025
     FM190400 30017G27KT P6SM SCT035
     FM190800 30012G22KT P6SM FEW150=

USA.gov is the U.S. government's official web portal to all federal, state and local government web resources and services.